sensor_id;sensor_type;location;lat;lon;timestamp;P1;durP1;ratioP1;P2;durP2;ratioP2
32038;SDS011;18549;42.286;22.688;2023-09-19T00:00:21;8.43;;;7.57;;
32038;SDS011;18549;42.286;22.688;2023-09-19T00:02:53;15.35;;;7.95;;
32038;SDS011;18549;42.286;22.688;2023-09-19T00:05:22;22.52;;;8.85;;
32038;SDS011;18549;42.286;22.688;2023-09-19T00:07:53;19.35;;;8.88;;
32038;SDS011;18549;42.286;22.688;2023-09-19T00:10:21;14.98;;;9.63;;
32038;SDS011;18549;42.286;22.688;2023-09-19T00:12:50;13.05;;;8.98;;
32038;SDS011;18549;42.286;22.688;2023-09-19T00:15:20;12.27;;;9.25;;
32038;SDS011;18549;42.286;22.688;2023-09-19T00:17:48;17.90;;;9.73;;
32038;SDS011;18549;42.286;22.688;2023-09-19T00:20:17;18.83;;;9.10;;
32038;SDS011;18549;42.286;22.688;2023-09-19T00:22:46;21.23;;;10.27;;
32038;SDS011;18549;42.286;22.688;2023-09-19T00:25:14;14.18;;;9.55;;
32038;SDS011;18549;42.286;22.688;2023-09-19T00:27:42;12.90;;;9.80;;
32038;SDS011;18549;42.286;22.688;2023-09-19T00:30:12;10.63;;;9.32;;
32038;SDS011;18549;42.286;22.688;2023-09-19T00:32:42;12.23;;;9.15;;
32038;SDS011;18549;42.286;22.688;2023-09-19T00:35:09;12.37;;;9.88;;
32038;SDS011;18549;42.286;22.688;2023-09-19T00:37:37;14.60;;;9.13;;
32038;SDS011;18549;42.286;22.688;2023-09-19T00:40:06;16.70;;;10.90;;
32038;SDS011;18549;42.286;22.688;2023-09-19T00:42:37;20.67;;;10.20;;
32038;SDS011;18549;42.286;22.688;2023-09-19T00:45:06;14.57;;;10.35;;
32038;SDS011;18549;42.286;22.688;2023-09-19T00:47:38;13.35;;;10.18;;
32038;SDS011;18549;42.286;22.688;2023-09-19T00:50:06;12.37;;;10.73;;
32038;SDS011;18549;42.286;22.688;2023-09-19T00:52:39;13.75;;;9.20;;
32038;SDS011;18549;42.286;22.688;2023-09-19T00:55:10;22.75;;;9.95;;
32038;SDS011;18549;42.286;22.688;2023-09-19T00:57:39;14.15;;;9.45;;
32038;SDS011;18549;42.286;22.688;2023-09-19T01:00:07;11.95;;;9.68;;
32038;SDS011;18549;42.286;22.688;2023-09-19T01:02:42;15.70;;;8.82;;
32038;SDS011;18549;42.286;22.688;2023-09-19T01:05:10;12.85;;;8.75;;
32038;SDS011;18549;42.286;22.688;2023-09-19T01:07:38;13.40;;;9.65;;
32038;SDS011;18549;42.286;22.688;2023-09-19T01:10:07;13.10;;;9.30;;
32038;SDS011;18549;42.286;22.688;2023-09-19T01:12:42;12.37;;;9.30;;
32038;SDS011;18549;42.286;22.688;2023-09-19T01:15:17;10.75;;;9.10;;
32038;SDS011;18549;42.286;22.688;2023-09-19T01:17:56;11.57;;;9.65;;
32038;SDS011;18549;42.286;22.688;2023-09-19T01:20:31;13.55;;;10.13;;
32038;SDS011;18549;42.286;22.688;2023-09-19T01:23:14;16.40;;;8.82;;
32038;SDS011;18549;42.286;22.688;2023-09-19T01:26:01;14.00;;;8.77;;
32038;SDS011;18549;42.286;22.688;2023-09-19T01:28:34;14.60;;;9.27;;
32038;SDS011;18549;42.286;22.688;2023-09-19T01:31:13;19.92;;;9.13;;
32038;SDS011;18549;42.286;22.688;2023-09-19T01:33:57;9.07;;;7.62;;
32038;SDS011;18549;42.286;22.688;2023-09-19T01:36:27;9.27;;;7.72;;
32038;SDS011;18549;42.286;22.688;2023-09-19T01:38:55;11.73;;;8.30;;
32038;SDS011;18549;42.286;22.688;2023-09-19T01:44:22;10.57;;;8.50;;
32038;SDS011;18549;42.286;22.688;2023-09-19T01:47:00;6.97;;;6.28;;
32038;SDS011;18549;42.286;22.688;2023-09-19T01:49:33;10.82;;;7.55;;
32038;SDS011;18549;42.286;22.688;2023-09-19T01:52:11;10.45;;;7.82;;
32038;SDS011;18549;42.286;22.688;2023-09-19T01:54:42;9.93;;;7.40;;
32038;SDS011;18549;42.286;22.688;2023-09-19T01:57:17;9.00;;;8.00;;
32038;SDS011;18549;42.286;22.688;2023-09-19T01:59:57;8.38;;;7.45;;
32038;SDS011;18549;42.286;22.688;2023-09-19T02:02:32;9.82;;;7.43;;
32038;SDS011;18549;42.286;22.688;2023-09-19T02:05:01;7.68;;;6.72;;
32038;SDS011;18549;42.286;22.688;2023-09-19T02:07:29;12.63;;;7.93;;
32038;SDS011;18549;42.286;22.688;2023-09-19T02:09:57;7.68;;;6.50;;
32038;SDS011;18549;42.286;22.688;2023-09-19T02:12:24;15.65;;;7.45;;
32038;SDS011;18549;42.286;22.688;2023-09-19T02:14:52;10.65;;;7.40;;
32038;SDS011;18549;42.286;22.688;2023-09-19T02:17:22;8.77;;;7.80;;
32038;SDS011;18549;42.286;22.688;2023-09-19T02:19:52;10.50;;;7.70;;
32038;SDS011;18549;42.286;22.688;2023-09-19T02:22:20;10.02;;;8.05;;
32038;SDS011;18549;42.286;22.688;2023-09-19T02:24:50;9.50;;;6.68;;
32038;SDS011;18549;42.286;22.688;2023-09-19T02:27:18;9.88;;;7.25;;
32038;SDS011;18549;42.286;22.688;2023-09-19T02:29:45;10.13;;;7.47;;
32038;SDS011;18549;42.286;22.688;2023-09-19T02:32:14;9.38;;;7.37;;
32038;SDS011;18549;42.286;22.688;2023-09-19T02:34:43;9.05;;;7.43;;
32038;SDS011;18549;42.286;22.688;2023-09-19T02:37:12;9.15;;;7.22;;
32038;SDS011;18549;42.286;22.688;2023-09-19T02:39:41;7.85;;;6.68;;
32038;SDS011;18549;42.286;22.688;2023-09-19T02:42:09;13.57;;;8.45;;
32038;SDS011;18549;42.286;22.688;2023-09-19T02:44:36;11.27;;;7.68;;
32038;SDS011;18549;42.286;22.688;2023-09-19T02:47:05;8.52;;;7.68;;
32038;SDS011;18549;42.286;22.688;2023-09-19T02:49:32;10.57;;;7.82;;
32038;SDS011;18549;42.286;22.688;2023-09-19T02:52:00;10.18;;;8.15;;
32038;SDS011;18549;42.286;22.688;2023-09-19T02:54:30;8.50;;;7.60;;
32038;SDS011;18549;42.286;22.688;2023-09-19T02:56:58;9.30;;;7.80;;
32038;SDS011;18549;42.286;22.688;2023-09-19T02:59:25;16.87;;;8.27;;
32038;SDS011;18549;42.286;22.688;2023-09-19T03:01:53;11.57;;;7.53;;
32038;SDS011;18549;42.286;22.688;2023-09-19T03:04:21;10.05;;;7.22;;
32038;SDS011;18549;42.286;22.688;2023-09-19T03:06:48;7.82;;;7.03;;
32038;SDS011;18549;42.286;22.688;2023-09-19T03:09:18;10.82;;;7.82;;
32038;SDS011;18549;42.286;22.688;2023-09-19T03:11:47;9.77;;;7.85;;
32038;SDS011;18549;42.286;22.688;2023-09-19T03:14:15;11.20;;;7.85;;
32038;SDS011;18549;42.286;22.688;2023-09-19T03:16:42;15.57;;;7.85;;
32038;SDS011;18549;42.286;22.688;2023-09-19T03:19:09;10.05;;;8.02;;
32038;SDS011;18549;42.286;22.688;2023-09-19T03:21:37;9.35;;;8.40;;
32038;SDS011;18549;42.286;22.688;2023-09-19T03:24:05;10.77;;;7.30;;
32038;SDS011;18549;42.286;22.688;2023-09-19T03:26:33;13.32;;;7.53;;
32038;SDS011;18549;42.286;22.688;2023-09-19T03:29:04;10.15;;;7.70;;
32038;SDS011;18549;42.286;22.688;2023-09-19T03:31:33;16.35;;;7.93;;
32038;SDS011;18549;42.286;22.688;2023-09-19T03:34:03;9.75;;;7.35;;
32038;SDS011;18549;42.286;22.688;2023-09-19T03:36:30;11.32;;;7.70;;
32038;SDS011;18549;42.286;22.688;2023-09-19T03:38:57;18.45;;;13.90;;
32038;SDS011;18549;42.286;22.688;2023-09-19T03:41:25;31.92;;;20.52;;
32038;SDS011;18549;42.286;22.688;2023-09-19T03:43:52;31.40;;;17.58;;
32038;SDS011;18549;42.286;22.688;2023-09-19T03:46:21;31.25;;;21.30;;
32038;SDS011;18549;42.286;22.688;2023-09-19T03:48:48;23.42;;;18.70;;
32038;SDS011;18549;42.286;22.688;2023-09-19T03:51:15;27.37;;;20.35;;
32038;SDS011;18549;42.286;22.688;2023-09-19T03:53:43;30.05;;;21.27;;
32038;SDS011;18549;42.286;22.688;2023-09-19T03:56:10;17.58;;;15.70;;
32038;SDS011;18549;42.286;22.688;2023-09-19T03:58:37;16.73;;;11.80;;
32038;SDS011;18549;42.286;22.688;2023-09-19T04:01:05;11.50;;;10.25;;
32038;SDS011;18549;42.286;22.688;2023-09-19T04:03:34;14.77;;;9.60;;
32038;SDS011;18549;42.286;22.688;2023-09-19T04:06:11;12.23;;;8.63;;
32038;SDS011;18549;42.286;22.688;2023-09-19T04:08:39;13.98;;;8.75;;
32038;SDS011;18549;42.286;22.688;2023-09-19T04:11:07;10.15;;;8.38;;
32038;SDS011;18549;42.286;22.688;2023-09-19T04:13:34;11.70;;;8.15;;
32038;SDS011;18549;42.286;22.688;2023-09-19T04:16:02;10.23;;;9.00;;
32038;SDS011;18549;42.286;22.688;2023-09-19T04:18:32;18.27;;;9.15;;
32038;SDS011;18549;42.286;22.688;2023-09-19T04:21:04;12.45;;;7.87;;
32038;SDS011;18549;42.286;22.688;2023-09-19T04:23:31;13.77;;;9.00;;
32038;SDS011;18549;42.286;22.688;2023-09-19T04:25:59;12.65;;;8.20;;
32038;SDS011;18549;42.286;22.688;2023-09-19T04:28:26;11.18;;;8.48;;
32038;SDS011;18549;42.286;22.688;2023-09-19T04:30:54;9.70;;;7.87;;
32038;SDS011;18549;42.286;22.688;2023-09-19T04:33:21;15.18;;;8.25;;
32038;SDS011;18549;42.286;22.688;2023-09-19T04:35:49;13.23;;;10.10;;
32038;SDS011;18549;42.286;22.688;2023-09-19T04:38:19;16.35;;;9.80;;
32038;SDS011;18549;42.286;22.688;2023-09-19T04:40:46;18.90;;;8.90;;
32038;SDS011;18549;42.286;22.688;2023-09-19T04:43:14;25.80;;;9.50;;
32038;SDS011;18549;42.286;22.688;2023-09-19T04:45:42;14.70;;;9.57;;
32038;SDS011;18549;42.286;22.688;2023-09-19T04:48:09;12.45;;;9.45;;
32038;SDS011;18549;42.286;22.688;2023-09-19T04:50:37;22.60;;;11.05;;
32038;SDS011;18549;42.286;22.688;2023-09-19T04:53:04;17.65;;;10.30;;
32038;SDS011;18549;42.286;22.688;2023-09-19T04:55:33;19.12;;;10.73;;
32038;SDS011;18549;42.286;22.688;2023-09-19T04:58:01;23.58;;;10.88;;
32038;SDS011;18549;42.286;22.688;2023-09-19T05:00:29;16.30;;;11.27;;
32038;SDS011;18549;42.286;22.688;2023-09-19T05:03:00;20.90;;;12.07;;
32038;SDS011;18549;42.286;22.688;2023-09-19T05:05:29;17.60;;;11.85;;
32038;SDS011;18549;42.286;22.688;2023-09-19T05:07:56;18.98;;;11.70;;
32038;SDS011;18549;42.286;22.688;2023-09-19T05:10:24;25.02;;;13.10;;
32038;SDS011;18549;42.286;22.688;2023-09-19T05:12:54;21.33;;;12.35;;
32038;SDS011;18549;42.286;22.688;2023-09-19T05:15:22;26.25;;;18.02;;
32038;SDS011;18549;42.286;22.688;2023-09-19T05:17:49;16.98;;;11.98;;
32038;SDS011;18549;42.286;22.688;2023-09-19T05:20:19;17.37;;;12.02;;
32038;SDS011;18549;42.286;22.688;2023-09-19T05:22:50;19.27;;;11.55;;
32038;SDS011;18549;42.286;22.688;2023-09-19T05:25:23;15.45;;;10.40;;
32038;SDS011;18549;42.286;22.688;2023-09-19T05:27:56;18.60;;;12.25;;
32038;SDS011;18549;42.286;22.688;2023-09-19T05:30:25;18.95;;;11.98;;
32038;SDS011;18549;42.286;22.688;2023-09-19T05:32:54;19.08;;;12.10;;
32038;SDS011;18549;42.286;22.688;2023-09-19T05:35:22;22.23;;;12.23;;
32038;SDS011;18549;42.286;22.688;2023-09-19T05:37:54;23.30;;;12.80;;
32038;SDS011;18549;42.286;22.688;2023-09-19T05:40:21;19.23;;;12.13;;
32038;SDS011;18549;42.286;22.688;2023-09-19T05:42:50;19.17;;;12.60;;
32038;SDS011;18549;42.286;22.688;2023-09-19T05:45:19;26.15;;;11.77;;
32038;SDS011;18549;42.286;22.688;2023-09-19T05:47:48;24.87;;;13.10;;
32038;SDS011;18549;42.286;22.688;2023-09-19T05:50:16;21.98;;;12.23;;
32038;SDS011;18549;42.286;22.688;2023-09-19T05:52:51;17.15;;;12.35;;
32038;SDS011;18549;42.286;22.688;2023-09-19T05:55:18;17.12;;;11.20;;
32038;SDS011;18549;42.286;22.688;2023-09-19T05:57:49;18.00;;;10.30;;
32038;SDS011;18549;42.286;22.688;2023-09-19T06:00:19;18.50;;;11.45;;
32038;SDS011;18549;42.286;22.688;2023-09-19T06:02:49;14.50;;;11.20;;
32038;SDS011;18549;42.286;22.688;2023-09-19T06:05:17;17.05;;;10.73;;
32038;SDS011;18549;42.286;22.688;2023-09-19T06:07:45;12.77;;;11.10;;
32038;SDS011;18549;42.286;22.688;2023-09-19T06:10:12;18.40;;;12.07;;
32038;SDS011;18549;42.286;22.688;2023-09-19T06:12:40;13.15;;;10.00;;
32038;SDS011;18549;42.286;22.688;2023-09-19T06:15:09;14.20;;;10.52;;
32038;SDS011;18549;42.286;22.688;2023-09-19T06:17:42;15.52;;;11.85;;
32038;SDS011;18549;42.286;22.688;2023-09-19T06:20:10;15.73;;;10.77;;
32038;SDS011;18549;42.286;22.688;2023-09-19T06:22:40;17.65;;;12.40;;
32038;SDS011;18549;42.286;22.688;2023-09-19T06:25:09;15.23;;;11.80;;
32038;SDS011;18549;42.286;22.688;2023-09-19T06:27:38;14.70;;;11.27;;
32038;SDS011;18549;42.286;22.688;2023-09-19T06:30:08;14.75;;;11.57;;
32038;SDS011;18549;42.286;22.688;2023-09-19T06:32:36;14.23;;;11.50;;
32038;SDS011;18549;42.286;22.688;2023-09-19T06:35:06;21.37;;;11.40;;
32038;SDS011;18549;42.286;22.688;2023-09-19T06:37:36;19.20;;;11.40;;
32038;SDS011;18549;42.286;22.688;2023-09-19T06:40:05;17.48;;;11.43;;
32038;SDS011;18549;42.286;22.688;2023-09-19T06:42:35;16.23;;;11.07;;
32038;SDS011;18549;42.286;22.688;2023-09-19T06:45:04;18.37;;;11.32;;
32038;SDS011;18549;42.286;22.688;2023-09-19T06:47:32;19.80;;;12.00;;
32038;SDS011;18549;42.286;22.688;2023-09-19T06:50:00;17.70;;;11.38;;
32038;SDS011;18549;42.286;22.688;2023-09-19T06:52:29;20.90;;;13.30;;
32038;SDS011;18549;42.286;22.688;2023-09-19T06:54:57;16.48;;;11.73;;
32038;SDS011;18549;42.286;22.688;2023-09-19T06:57:24;21.70;;;14.32;;
32038;SDS011;18549;42.286;22.688;2023-09-19T06:59:52;17.37;;;11.85;;
32038;SDS011;18549;42.286;22.688;2023-09-19T07:02:19;19.95;;;13.45;;
32038;SDS011;18549;42.286;22.688;2023-09-19T07:04:47;28.25;;;15.13;;
32038;SDS011;18549;42.286;22.688;2023-09-19T07:07:14;22.15;;;14.07;;
32038;SDS011;18549;42.286;22.688;2023-09-19T07:09:43;35.50;;;20.05;;
32038;SDS011;18549;42.286;22.688;2023-09-19T07:12:14;20.45;;;13.73;;
32038;SDS011;18549;42.286;22.688;2023-09-19T07:14:43;17.73;;;12.55;;
32038;SDS011;18549;42.286;22.688;2023-09-19T07:17:10;22.75;;;12.43;;
32038;SDS011;18549;42.286;22.688;2023-09-19T07:19:38;16.87;;;12.02;;
32038;SDS011;18549;42.286;22.688;2023-09-19T07:22:05;18.40;;;12.45;;
32038;SDS011;18549;42.286;22.688;2023-09-19T07:24:33;22.50;;;12.77;;
32038;SDS011;18549;42.286;22.688;2023-09-19T07:27:04;19.02;;;13.30;;
32038;SDS011;18549;42.286;22.688;2023-09-19T07:29:31;16.25;;;12.63;;
32038;SDS011;18549;42.286;22.688;2023-09-19T07:31:59;16.90;;;11.77;;
32038;SDS011;18549;42.286;22.688;2023-09-19T07:34:26;14.70;;;12.30;;
32038;SDS011;18549;42.286;22.688;2023-09-19T07:36:54;19.70;;;12.02;;
32038;SDS011;18549;42.286;22.688;2023-09-19T07:39:22;19.83;;;12.05;;
32038;SDS011;18549;42.286;22.688;2023-09-19T07:41:49;16.20;;;11.65;;
32038;SDS011;18549;42.286;22.688;2023-09-19T07:44:18;21.67;;;11.73;;
32038;SDS011;18549;42.286;22.688;2023-09-19T07:46:46;16.85;;;11.95;;
32038;SDS011;18549;42.286;22.688;2023-09-19T07:49:16;17.50;;;11.12;;
32038;SDS011;18549;42.286;22.688;2023-09-19T07:51:44;15.68;;;11.70;;
32038;SDS011;18549;42.286;22.688;2023-09-19T07:54:12;16.77;;;11.20;;
32038;SDS011;18549;42.286;22.688;2023-09-19T07:56:40;20.67;;;11.88;;
32038;SDS011;18549;42.286;22.688;2023-09-19T07:59:07;13.80;;;11.07;;
32038;SDS011;18549;42.286;22.688;2023-09-19T08:01:38;18.27;;;11.17;;
32038;SDS011;18549;42.286;22.688;2023-09-19T08:04:06;13.48;;;11.20;;
32038;SDS011;18549;42.286;22.688;2023-09-19T08:06:34;13.85;;;11.05;;
32038;SDS011;18549;42.286;22.688;2023-09-19T08:09:04;14.20;;;10.93;;
32038;SDS011;18549;42.286;22.688;2023-09-19T08:11:36;20.07;;;10.30;;
32038;SDS011;18549;42.286;22.688;2023-09-19T08:14:04;17.27;;;11.77;;
32038;SDS011;18549;42.286;22.688;2023-09-19T08:16:32;14.57;;;10.77;;
32038;SDS011;18549;42.286;22.688;2023-09-19T08:19:01;12.57;;;9.55;;
32038;SDS011;18549;42.286;22.688;2023-09-19T08:21:29;12.68;;;9.90;;
32038;SDS011;18549;42.286;22.688;2023-09-19T08:23:57;12.68;;;10.45;;
32038;SDS011;18549;42.286;22.688;2023-09-19T08:26:34;16.45;;;10.27;;
32038;SDS011;18549;42.286;22.688;2023-09-19T08:29:03;13.07;;;9.55;;
32038;SDS011;18549;42.286;22.688;2023-09-19T08:31:32;10.93;;;9.65;;
32038;SDS011;18549;42.286;22.688;2023-09-19T08:34:02;11.43;;;8.98;;
32038;SDS011;18549;42.286;22.688;2023-09-19T08:36:29;19.80;;;11.27;;
32038;SDS011;18549;42.286;22.688;2023-09-19T08:38:57;12.00;;;9.30;;
32038;SDS011;18549;42.286;22.688;2023-09-19T08:41:24;11.80;;;9.65;;
32038;SDS011;18549;42.286;22.688;2023-09-19T08:43:52;13.77;;;9.00;;
32038;SDS011;18549;42.286;22.688;2023-09-19T08:46:20;13.23;;;10.18;;
32038;SDS011;18549;42.286;22.688;2023-09-19T08:48:51;11.38;;;9.35;;
32038;SDS011;18549;42.286;22.688;2023-09-19T08:51:41;10.18;;;9.07;;
32038;SDS011;18549;42.286;22.688;2023-09-19T08:54:12;10.18;;;8.77;;
32038;SDS011;18549;42.286;22.688;2023-09-19T08:56:47;14.85;;;8.80;;
32038;SDS011;18549;42.286;22.688;2023-09-19T08:59:17;10.60;;;9.50;;
32038;SDS011;18549;42.286;22.688;2023-09-19T09:01:50;9.57;;;8.45;;
32038;SDS011;18549;42.286;22.688;2023-09-19T09:04:19;13.95;;;9.88;;
32038;SDS011;18549;42.286;22.688;2023-09-19T09:06:49;19.15;;;9.15;;
32038;SDS011;18549;42.286;22.688;2023-09-19T09:09:20;14.93;;;9.48;;
32038;SDS011;18549;42.286;22.688;2023-09-19T09:11:48;13.73;;;8.75;;
32038;SDS011;18549;42.286;22.688;2023-09-19T09:14:18;14.13;;;9.65;;
32038;SDS011;18549;42.286;22.688;2023-09-19T09:16:47;22.98;;;16.17;;
32038;SDS011;18549;42.286;22.688;2023-09-19T09:19:15;12.63;;;9.25;;
32038;SDS011;18549;42.286;22.688;2023-09-19T09:21:51;17.70;;;9.55;;
32038;SDS011;18549;42.286;22.688;2023-09-19T09:24:27;13.32;;;9.27;;
32038;SDS011;18549;42.286;22.688;2023-09-19T09:26:56;12.35;;;9.20;;
32038;SDS011;18549;42.286;22.688;2023-09-19T09:32:22;14.55;;;8.75;;
32038;SDS011;18549;42.286;22.688;2023-09-19T09:34:51;12.10;;;9.18;;
32038;SDS011;18549;42.286;22.688;2023-09-19T09:37:21;17.60;;;10.32;;
32038;SDS011;18549;42.286;22.688;2023-09-19T09:39:50;9.95;;;8.90;;
32038;SDS011;18549;42.286;22.688;2023-09-19T09:42:28;13.18;;;9.65;;
32038;SDS011;18549;42.286;22.688;2023-09-19T09:45:14;14.50;;;9.82;;
32038;SDS011;18549;42.286;22.688;2023-09-19T09:47:43;12.25;;;9.50;;
32038;SDS011;18549;42.286;22.688;2023-09-19T09:50:28;13.88;;;9.10;;
32038;SDS011;18549;42.286;22.688;2023-09-19T09:53:23;10.93;;;8.82;;
32038;SDS011;18549;42.286;22.688;2023-09-19T09:55:57;15.68;;;8.82;;
32038;SDS011;18549;42.286;22.688;2023-09-19T09:58:26;12.93;;;9.18;;
32038;SDS011;18549;42.286;22.688;2023-09-19T10:00:55;10.98;;;7.82;;
32038;SDS011;18549;42.286;22.688;2023-09-19T10:03:31;17.37;;;10.40;;
32038;SDS011;18549;42.286;22.688;2023-09-19T10:06:04;11.60;;;8.82;;
32038;SDS011;18549;42.286;22.688;2023-09-19T10:09:04;17.27;;;9.20;;
32038;SDS011;18549;42.286;22.688;2023-09-19T10:11:41;16.98;;;8.23;;
32038;SDS011;18549;42.286;22.688;2023-09-19T10:14:10;16.87;;;9.57;;
32038;SDS011;18549;42.286;22.688;2023-09-19T10:16:45;15.68;;;9.65;;
32038;SDS011;18549;42.286;22.688;2023-09-19T10:19:16;13.48;;;9.15;;
32038;SDS011;18549;42.286;22.688;2023-09-19T10:21:58;13.60;;;8.40;;
32038;SDS011;18549;42.286;22.688;2023-09-19T10:24:29;15.60;;;9.98;;
32038;SDS011;18549;42.286;22.688;2023-09-19T10:26:57;14.57;;;10.63;;
32038;SDS011;18549;42.286;22.688;2023-09-19T10:29:26;15.68;;;10.23;;
32038;SDS011;18549;42.286;22.688;2023-09-19T10:31:56;14.93;;;9.32;;
32038;SDS011;18549;42.286;22.688;2023-09-19T10:34:26;17.20;;;10.43;;
32038;SDS011;18549;42.286;22.688;2023-09-19T10:36:56;18.45;;;8.95;;
32038;SDS011;18549;42.286;22.688;2023-09-19T10:39:24;15.95;;;10.52;;
32038;SDS011;18549;42.286;22.688;2023-09-19T10:41:53;22.08;;;10.43;;
32038;SDS011;18549;42.286;22.688;2023-09-19T10:44:24;15.77;;;11.45;;
32038;SDS011;18549;42.286;22.688;2023-09-19T10:46:54;22.60;;;11.27;;
32038;SDS011;18549;42.286;22.688;2023-09-19T10:49:26;14.27;;;9.65;;
32038;SDS011;18549;42.286;22.688;2023-09-19T10:51:57;15.88;;;9.93;;
32038;SDS011;18549;42.286;22.688;2023-09-19T10:54:27;17.23;;;11.85;;
32038;SDS011;18549;42.286;22.688;2023-09-19T10:57:04;23.30;;;10.82;;
32038;SDS011;18549;42.286;22.688;2023-09-19T10:59:34;13.38;;;9.55;;
32038;SDS011;18549;42.286;22.688;2023-09-19T11:02:15;15.00;;;9.82;;
32038;SDS011;18549;42.286;22.688;2023-09-19T11:04:44;13.15;;;9.55;;
32038;SDS011;18549;42.286;22.688;2023-09-19T11:07:14;15.15;;;9.82;;
32038;SDS011;18549;42.286;22.688;2023-09-19T11:09:45;12.10;;;10.15;;
32038;SDS011;18549;42.286;22.688;2023-09-19T11:18:51;13.87;;;10.10;;
32038;SDS011;18549;42.286;22.688;2023-09-19T11:27:13;13.75;;;9.60;;
32038;SDS011;18549;42.286;22.688;2023-09-19T11:29:44;14.23;;;10.70;;
32038;SDS011;18549;42.286;22.688;2023-09-19T11:32:13;11.40;;;8.68;;
32038;SDS011;18549;42.286;22.688;2023-09-19T11:34:46;19.45;;;10.55;;
32038;SDS011;18549;42.286;22.688;2023-09-19T11:40:36;17.53;;;10.50;;
32038;SDS011;18549;42.286;22.688;2023-09-19T11:46:07;17.92;;;10.52;;
32038;SDS011;18549;42.286;22.688;2023-09-19T11:48:34;16.25;;;9.98;;
32038;SDS011;18549;42.286;22.688;2023-09-19T11:51:10;12.48;;;10.25;;
32038;SDS011;18549;42.286;22.688;2023-09-19T11:53:45;36.35;;;11.43;;
32038;SDS011;18549;42.286;22.688;2023-09-19T11:56:15;14.10;;;9.93;;
32038;SDS011;18549;42.286;22.688;2023-09-19T11:58:44;20.52;;;10.32;;
32038;SDS011;18549;42.286;22.688;2023-09-19T12:01:21;16.77;;;10.23;;
32038;SDS011;18549;42.286;22.688;2023-09-19T12:03:52;11.93;;;10.13;;
32038;SDS011;18549;42.286;22.688;2023-09-19T12:06:22;20.23;;;10.30;;
32038;SDS011;18549;42.286;22.688;2023-09-19T12:08:50;12.48;;;10.95;;
32038;SDS011;18549;42.286;22.688;2023-09-19T12:11:19;14.02;;;10.57;;
32038;SDS011;18549;42.286;22.688;2023-09-19T12:13:49;16.12;;;10.70;;
32038;SDS011;18549;42.286;22.688;2023-09-19T12:16:20;15.25;;;10.20;;
32038;SDS011;18549;42.286;22.688;2023-09-19T12:18:48;15.57;;;12.45;;
32038;SDS011;18549;42.286;22.688;2023-09-19T12:21:23;14.95;;;10.68;;
32038;SDS011;18549;42.286;22.688;2023-09-19T12:23:59;11.38;;;9.57;;
32038;SDS011;18549;42.286;22.688;2023-09-19T12:26:37;11.38;;;10.27;;
32038;SDS011;18549;42.286;22.688;2023-09-19T12:29:11;13.98;;;9.80;;
32038;SDS011;18549;42.286;22.688;2023-09-19T12:31:49;14.27;;;9.73;;
32038;SDS011;18549;42.286;22.688;2023-09-19T12:34:20;15.80;;;10.02;;
32038;SDS011;18549;42.286;22.688;2023-09-19T12:39:40;15.13;;;10.83;;
32038;SDS011;18549;42.286;22.688;2023-09-19T12:42:09;13.65;;;9.85;;
32038;SDS011;18549;42.286;22.688;2023-09-19T12:44:42;11.80;;;9.95;;
32038;SDS011;18549;42.286;22.688;2023-09-19T12:47:13;16.33;;;10.50;;
32038;SDS011;18549;42.286;22.688;2023-09-19T12:52:44;12.60;;;9.80;;
32038;SDS011;18549;42.286;22.688;2023-09-19T12:55:23;11.27;;;9.98;;
32038;SDS011;18549;42.286;22.688;2023-09-19T12:57:55;13.30;;;10.10;;
32038;SDS011;18549;42.286;22.688;2023-09-19T13:00:32;20.00;;;11.38;;
32038;SDS011;18549;42.286;22.688;2023-09-19T13:03:18;11.52;;;10.32;;
32038;SDS011;18549;42.286;22.688;2023-09-19T13:05:52;11.65;;;10.45;;
32038;SDS011;18549;42.286;22.688;2023-09-19T13:08:21;13.48;;;10.48;;
32038;SDS011;18549;42.286;22.688;2023-09-19T13:11:07;15.45;;;11.68;;
32038;SDS011;18549;42.286;22.688;2023-09-19T13:13:42;11.85;;;9.90;;
32038;SDS011;18549;42.286;22.688;2023-09-19T13:16:14;17.30;;;11.23;;
32038;SDS011;18549;42.286;22.688;2023-09-19T13:18:47;18.15;;;9.95;;
32038;SDS011;18549;42.286;22.688;2023-09-19T13:21:27;13.30;;;10.68;;
32038;SDS011;18549;42.286;22.688;2023-09-19T13:26:46;16.90;;;10.65;;
32038;SDS011;18549;42.286;22.688;2023-09-19T13:29:16;15.55;;;9.48;;
32038;SDS011;18549;42.286;22.688;2023-09-19T13:31:45;12.27;;;10.93;;
32038;SDS011;18549;42.286;22.688;2023-09-19T13:34:15;10.63;;;9.27;;
32038;SDS011;18549;42.286;22.688;2023-09-19T13:36:43;13.57;;;9.70;;
32038;SDS011;18549;42.286;22.688;2023-09-19T13:39:12;10.93;;;9.82;;
32038;SDS011;18549;42.286;22.688;2023-09-19T13:41:41;16.67;;;9.90;;
32038;SDS011;18549;42.286;22.688;2023-09-19T13:44:08;12.48;;;10.07;;
32038;SDS011;18549;42.286;22.688;2023-09-19T13:46:37;12.82;;;10.20;;
32038;SDS011;18549;42.286;22.688;2023-09-19T13:49:06;13.13;;;10.68;;
32038;SDS011;18549;42.286;22.688;2023-09-19T13:51:34;13.73;;;10.27;;
32038;SDS011;18549;42.286;22.688;2023-09-19T13:54:02;13.15;;;10.70;;
32038;SDS011;18549;42.286;22.688;2023-09-19T13:56:31;12.95;;;10.82;;
32038;SDS011;18549;42.286;22.688;2023-09-19T13:58:59;13.93;;;10.95;;
32038;SDS011;18549;42.286;22.688;2023-09-19T14:01:26;12.18;;;10.13;;
32038;SDS011;18549;42.286;22.688;2023-09-19T14:03:53;14.77;;;10.75;;
32038;SDS011;18549;42.286;22.688;2023-09-19T14:06:22;16.40;;;11.27;;
32038;SDS011;18549;42.286;22.688;2023-09-19T14:08:51;13.02;;;11.12;;
32038;SDS011;18549;42.286;22.688;2023-09-19T14:11:18;20.05;;;11.57;;
32038;SDS011;18549;42.286;22.688;2023-09-19T14:13:46;24.73;;;12.37;;
32038;SDS011;18549;42.286;22.688;2023-09-19T14:16:17;11.80;;;10.60;;
32038;SDS011;18549;42.286;22.688;2023-09-19T14:18:44;15.38;;;10.23;;
32038;SDS011;18549;42.286;22.688;2023-09-19T14:21:12;13.88;;;10.95;;
32038;SDS011;18549;42.286;22.688;2023-09-19T14:23:39;19.05;;;11.65;;
32038;SDS011;18549;42.286;22.688;2023-09-19T14:26:10;12.45;;;11.15;;
32038;SDS011;18549;42.286;22.688;2023-09-19T14:28:41;15.82;;;11.65;;
32038;SDS011;18549;42.286;22.688;2023-09-19T14:31:10;16.20;;;11.48;;
32038;SDS011;18549;42.286;22.688;2023-09-19T14:33:38;15.35;;;11.70;;
32038;SDS011;18549;42.286;22.688;2023-09-19T14:36:06;11.77;;;10.20;;
32038;SDS011;18549;42.286;22.688;2023-09-19T14:38:36;14.70;;;10.15;;
32038;SDS011;18549;42.286;22.688;2023-09-19T14:41:04;12.55;;;10.95;;
32038;SDS011;18549;42.286;22.688;2023-09-19T14:43:34;16.75;;;10.80;;
32038;SDS011;18549;42.286;22.688;2023-09-19T14:46:02;20.20;;;10.27;;
32038;SDS011;18549;42.286;22.688;2023-09-19T14:48:30;18.33;;;11.60;;
32038;SDS011;18549;42.286;22.688;2023-09-19T14:51:01;17.35;;;12.05;;
32038;SDS011;18549;42.286;22.688;2023-09-19T14:53:29;14.80;;;11.05;;
32038;SDS011;18549;42.286;22.688;2023-09-19T14:55:56;16.77;;;11.63;;
32038;SDS011;18549;42.286;22.688;2023-09-19T14:58:27;20.80;;;12.45;;
32038;SDS011;18549;42.286;22.688;2023-09-19T15:01:02;21.60;;;11.65;;
32038;SDS011;18549;42.286;22.688;2023-09-19T15:03:31;15.40;;;12.37;;
32038;SDS011;18549;42.286;22.688;2023-09-19T15:06:00;17.73;;;11.43;;